Extreme high temperature From: 16-07-2018 05:00 Until: 19:00 warning for: Extreme high temperature Level: Yellow info button
suomi:
Hellevaroitus: Lähivuorokauden aikana on odotettavissa tukalaa hellettä.

svenska:
Varning för värmebölja: Under det närmaste dygnet är den svåra hettan att vänta.

english:
Heat wave warning: Warm weather is expected during the coming 24 hours. 


Thunder radar more information blitzortung!


Löydät sääaseman tiedot myös:

European Weather Network

Finland Weather Exchange

Weather Underground

AWEKAS



Weather Underground säähistoriasivu

Päivittäin yhteenveto Kesäkuu 29, 2017 Yksiköt:  Englantilaiset    Metriset   Molemmat
« Edellinen Päivä
Seuraava Päivä »
Päivittäin Viikoittain Kuukausittain Vuosittain Mukautettu
  Korkea: Matala: Keskiarvo:
Lämpötila: TemperatureC °F 4.8 °F 14.3 °F
Kastepiste: DewpointC °F 4.2 °F 8.9 °F
Kosteus: Humidity % 42 % 72 %
Tuulen nopeus: WindSpeedKMH mph 0.0 mph 0.1 mph
Tuulenpuuska: WindSpeedGustKMH mph - -
Tuuli:- - West
Ilmanpaine: PressurehPa in 1011.1 in -
Sade: 0.3 in    
Historical Graphs
 
 
Taulukkotiedot Kesäkuu 29, 2017
Aika Lämpötila Kastepiste Ilmanpaine Tuuli Tuulen nopeus Tuulenpuuska Kosteus Sademäärä (tunneittain)
TemperatureC °F DewpointC °F PressurehPa in Calm     Humidity % HourlyPrecipMM in
00:00 10.6 °F 9.6 °F 1011.4 in Calm   6.4 mph 94 % 0.0 in
00:15 10.1 °F 9.2 °F 1011.4 in Calm     94 % 0.0 in
00:30 9.6 °F 8.7 °F 1011.4 in Calm     94 % 0.3 in
00:45 9.2 °F 8.3 °F 1011.4 in Calm     94 % 0.3 in
01:15 8.4 °F 7.5 °F 1011.7 in Calm     94 % 0.3 in
01:30 8.1 °F 7.2 °F 1011.7 in Calm     94 % 0.0 in
01:45 7.9 °F 7.1 °F 1011.7 in Calm     95 % 0.0 in
02:00 7.6 °F 6.8 °F 1011.7 in Calm     95 % 0.0 in
02:15 7.1 °F 6.2 °F 1011.7 in Calm     94 % 0.0 in
02:30 6.7 °F 5.9 °F 1012.1 in Calm     95 % 0.0 in
02:45 6.2 °F 5.5 °F 1011.7 in Calm     95 % 0.0 in
03:00 5.9 °F 5.2 °F 1012.1 in Calm     95 % 0.0 in
03:15 5.6 °F 4.9 °F 1012.1 in Calm     95 % 0.0 in
03:30 5.5 °F 4.8 °F 1012.1 in Calm     95 % 0.0 in
03:45 5.3 °F 4.6 °F 1012.4 in Calm     95 % 0.0 in
04:00 5.2 °F 4.4 °F 1012.4 in Calm     95 % 0.0 in
04:15 4.9 °F 4.4 °F 1012.4 in Calm     96 % 0.0 in
04:30 4.9 °F 4.3 °F 1012.4 in Calm     96 % 0.0 in
04:45 4.8 °F 4.2 °F 1012.8 in Calm     96 % 0.0 in
05:00 4.8 °F 4.2 °F 1012.8 in Calm     96 % 0.0 in
05:15 4.9 °F 4.3 °F 1012.8 in Calm     96 % 0.0 in
05:30 5.1 °F 4.6 °F 1012.8 in Calm     97 % 0.0 in
05:45 5.2 °F 4.8 °F 1012.8 in Calm     97 % 0.0 in
06:00 5.4 °F 5.0 °F 1012.8 in Calm     97 % 0.0 in
06:15 6.0 °F 5.6 °F 1012.8 in Calm     97 % 0.0 in
06:30 6.5 °F 6.1 °F 1013.1 in Calm     97 % 0.0 in
06:45 7.1 °F 6.7 °F 1013.1 in Calm     97 % 0.0 in
07:00 7.8 °F 7.5 °F 1013.1 in Calm     98 % 0.0 in
07:15 8.3 °F 8.0 °F 1013.1 in Calm     98 % 0.0 in
07:30 8.7 °F 8.4 °F 1013.1 in Calm     98 % 0.0 in
07:45 9.2 °F 8.9 °F 1013.1 in Calm     98 % 0.0 in
08:00 9.6 °F 9.3 °F 1013.1 in Calm     98 % 0.0 in
08:15 10.2 °F 9.9 °F 1013.1 in Calm     98 % 0.0 in
08:30 10.8 °F 10.5 °F 1013.4 in Calm     98 % 0.0 in
08:45 11.8 °F 11.0 °F 1013.1 in Calm     95 % 0.0 in
09:00 12.8 °F 11.4 °F 1013.4 in Calm     91 % 0.0 in
09:15 13.6 °F 10.8 °F 1013.1 in Calm   6.4 mph 83 % 0.0 in
09:30 14.5 °F 10.5 °F 1013.1 in Calm   1.6 mph 77 % 0.0 in
09:45 14.9 °F 10.9 °F 1013.1 in Calm   3.2 mph 77 % 0.0 in
10:00 15.4 °F 11.0 °F 1013.1 in Calm   4.8 mph 75 % 0.0 in
10:15 16.1 °F 11.3 °F 1013.1 in Calm   1.6 mph 73 % 0.0 in
10:30 16.7 °F 11.6 °F 1012.8 in Calm   8.0 mph 73 % 0.0 in
10:45 17.1 °F 11.2 °F 1012.8 in Calm   1.6 mph 68 % 0.0 in
11:00 16.9 °F 10.5 °F 1013.1 in SW 1.6 mph 8.0 mph 66 % 0.0 in
11:15 17.4 °F 11.4 °F 1013.1 in Calm   4.8 mph 68 % 0.0 in
11:30 18.1 °F 11.6 °F 1013.1 in WSW 1.6 mph 6.4 mph 66 % 0.0 in
11:45 18.2 °F 10.8 °F 1013.1 in Calm   4.8 mph 62 % 0.0 in
12:00 18.0 °F 10.8 °F 1013.1 in Calm   1.6 mph 63 % 0.0 in
12:15 18.2 °F 10.0 °F 1012.8 in Calm   3.2 mph 59 % 0.0 in
12:30 19.2 °F 10.2 °F 1012.8 in Calm   1.6 mph 56 % 0.0 in
12:45 18.3 °F 11.6 °F 1012.8 in Calm     65 % 0.0 in
13:00 18.4 °F 9.4 °F 1012.8 in Calm   1.6 mph 56 % 0.0 in
13:15 18.3 °F 10.7 °F 1012.8 in Calm   4.8 mph 61 % 0.0 in
13:30 17.8 °F 10.0 °F 1012.8 in Calm     60 % 0.0 in
13:45 17.7 °F 10.0 °F 1012.8 in Calm   1.6 mph 61 % 0.0 in
14:00 17.9 °F 10.8 °F 1012.8 in Calm   1.6 mph 63 % 0.0 in
14:15 19.3 °F 10.5 °F 1012.8 in Calm   6.4 mph 57 % 0.0 in
14:30 20.2 °F 10.9 °F 1012.8 in Calm   3.2 mph 55 % 0.0 in
14:45 20.4 °F 11.1 °F 1012.8 in Calm   3.2 mph 55 % 0.0 in
15:00 20.4 °F 10.0 °F 1012.4 in Calm   3.2 mph 51 % 0.0 in
15:15 20.9 °F 10.7 °F 1012.4 in Calm   4.8 mph 52 % 0.0 in
15:30 20.9 °F 9.8 °F 1012.4 in NW 1.6 mph 6.4 mph 49 % 0.0 in
15:45 21.3 °F 9.2 °F 1012.1 in SSW 1.6 mph 6.4 mph 46 % 0.0 in
16:00 21.7 °F 10.2 °F 1012.1 in Calm   4.8 mph 48 % 0.0 in
16:15 21.8 °F 10.3 °F 1012.1 in WNW 1.6 mph 4.8 mph 48 % 0.0 in
16:30 21.9 °F 10.7 °F 1012.1 in NNW 1.6 mph 6.4 mph 49 % 0.0 in
16:45 21.4 °F 10.5 °F 1012.1 in Calm     50 % 0.0 in
17:00 20.4 °F 10.2 °F 1011.7 in Calm   1.6 mph 52 % 0.0 in
17:15 21.4 °F 10.9 °F 1011.7 in Calm   3.2 mph 51 % 0.0 in
17:30 21.2 °F 10.6 °F 1011.7 in Calm   1.6 mph 51 % 0.0 in
17:45 20.6 °F 11.0 °F 1011.7 in Calm   1.6 mph 54 % 0.0 in
18:00 21.2 °F 9.4 °F 1011.7 in Calm   3.2 mph 47 % 0.0 in
18:15 21.6 °F 9.4 °F 1011.4 in Calm   3.2 mph 46 % 0.0 in
18:30 21.6 °F 9.2 °F 1011.4 in Calm     45 % 0.0 in
18:45 21.6 °F 8.1 °F 1011.4 in Calm   3.2 mph 42 % 0.0 in
19:00 21.7 °F 8.5 °F 1011.4 in Calm   3.2 mph 43 % 0.0 in
19:15 21.6 °F 9.1 °F 1011.4 in Calm   1.6 mph 45 % 0.0 in
19:30 21.4 °F 10.2 °F 1011.1 in Calm     49 % 0.0 in
19:45 20.7 °F 10.2 °F 1011.1 in Calm     51 % 0.0 in
20:00 20.7 °F 10.8 °F 1011.1 in Calm     53 % 0.0 in
20:15 21.4 °F 10.8 °F 1011.1 in Calm     51 % 0.0 in
20:30 20.9 °F 9.5 °F 1011.1 in Calm     48 % 0.0 in
20:45 20.0 °F 10.7 °F 1011.1 in Calm     55 % 0.0 in
21:00 19.3 °F 10.6 °F 1011.1 in Calm     57 % 0.0 in
21:15 18.7 °F 10.5 °F 1011.1 in Calm     59 % 0.0 in
21:30 18.2 °F 9.8 °F 1011.1 in Calm     58 % 0.0 in
21:45 17.8 °F 10.0 °F 1011.1 in Calm     60 % 0.0 in
22:00 17.6 °F 11.1 °F 1011.4 in Calm     66 % 0.0 in
22:15 16.7 °F 10.1 °F 1011.4 in Calm     65 % 0.0 in
22:30 15.9 °F 10.0 °F 1011.4 in Calm     68 % 0.0 in
22:45 15.1 °F 9.8 °F 1011.4 in Calm     71 % 0.0 in
23:00 14.2 °F 10.4 °F 1011.7 in Calm     78 % 0.0 in
23:15 13.3 °F 9.9 °F 1011.7 in Calm     80 % 0.0 in
23:30 12.8 °F 9.4 °F 1011.7 in Calm   1.6 mph 80 % 0.0 in
23:45 12.6 °F 9.4 °F 1011.7 in Calm     81 % 0.0 in
Esan sääasema
Terveisin Weather Underground - 2.75 mb

Alkuperäinen skripti  Jim McMurry - jmcmurry@mwt.net Sovitettu myös templatelle  Wim van der Kuil - Leuven-Template.eu

Laitteet joita käytämme:

Sääasema
Davis VP2

Sääasemaohjelma
Cumulus

Sääaseman tietokone
Asus EeePC

Palveluntarjoaja
Suncomet

Davis VP2

Cumulus

Asus EeePC

Suncomet